Skip Navigation Links Skip Navigation Links

Current Weather

Byron, Calif.

For information only: do not use for flight planning or navigation.
Latest weather
Observation time Thursday, December 3, 2020 11:35 PM PST
Local time Friday, December 4, 2020 12:04 AM PST
Flight conditions Visual Meteorological Conditions
Winds
Wind direction West-Northwest (290°)
Wind speed 6 mph
Visibility 7 mi.
Sky condition
Ceiling unlimited
Sky clear
Temperature 46°F
Dewpoint 32°F
Altimeter 30.33 in.Hg
Derived measurements
Relative humidity 57%
Wind chill 44°F
Density altitude -1138 ft.
Remarks
Fully automated report.
Automated weather observing station with precipitation discriminator.
METAR KC83 040735Z AUTO 29005KT 7SM CLR 08/00 A3033 RMK AO2

Settings

Location code

InnerDrive.Weather 4.0.6770.0 Release CLR 4.0.30319.42000
Copyright ©2018 Inner Drive Technology. All rights reserved. Portions Copyright ©1986-2018 David Braverman.

Find weather

Site navigation


Skip Navigation Links

Place info

Page info

PayPal - The safer, easier way to pay online!

Return home.

Copyright ©2020 Inner Drive Technology. Purveyors of fine, hand-crafted computer software. Page printed 2020-12-04T08:04:22 UTC.